Time;durP1;ratioP1;P1;durP2;ratioP2;P2;SDS_P1;SDS_P2;PMS_P1;PMS_P2;Temp;Humidity;BMP_temperature;BMP_pressure;BME280_temperature;BME280_humidity;BME280_pressure;Samples;Min_cycle;Max_cycle;Signal;HPM_P1;HPM_P2
2022/09/15 00:03:53;;;;;;;10.30;8.60;;;;;;;15.73;100.00;97273.33;219479;1279;22982;-78
2022/09/15 00:09:31;;;;;;;11.60;8.90;;;;;;;15.71;100.00;97267.05;219664;1281;22793;-78
2022/09/15 00:14:59;;;;;;;12.90;9.50;;;;;;;15.73;100.00;97256.73;219694;1281;23760;-77
2022/09/15 00:20:23;;;;;;;13.80;9.90;;;;;;;15.75;100.00;97249.83;219939;1276;24333;-77
2022/09/15 00:25:46;;;;;;;11.20;8.60;;;;;;;15.79;100.00;97241.58;220021;1275;26362;-77
2022/09/15 00:30:58;;;;;;;12.80;9.80;;;;;;;15.80;100.00;97240.70;219805;1277;25361;-76
2022/09/15 00:36:30;;;;;;;;;;;;;;;15.82;100.00;97233.33;220237;1276;24272;-78
2022/09/15 00:42:20;;;;;;;14.90;10.70;;;;;;;15.81;100.00;97218.11;220195;1277;24328;-77
2022/09/15 00:47:47;;;;;;;14.50;10.00;;;;;;;15.79;100.00;97214.75;220185;1276;22969;-77
2022/09/15 00:53:30;;;;;;;;;;;;;;;15.76;100.00;97214.45;219962;1278;22569;-78
2022/09/15 00:59:11;;;;;;;18.30;11.10;;;;;;;15.72;100.00;97205.59;220268;1276;25262;-78
2022/09/15 01:04:35;;;;;;;12.90;10.30;;;;;;;15.69;100.00;97186.34;219878;1277;22535;-77
2022/09/15 01:10:32;;;;;;;;;;;;;;;;;;;;;
2022/09/15 01:16:32;;;;;;;13.00;9.10;;;;;;;15.68;100.00;97180.53;220115;1276;24856;-77
2022/09/15 01:22:22;;;;;;;16.10;11.00;;;;;;;15.68;100.00;97182.00;220079;1277;24242;-78
2022/09/15 01:28:13;;;;;;;14.80;11.00;;;;;;;15.71;100.00;97180.27;219985;1277;22619;-78
2022/09/15 01:34:47;;;;;;;13.60;9.90;;;;;;;15.77;100.00;97181.52;220203;1276;24274;-78
2022/09/15 01:41:12;;;;;;;13.10;10.20;;;;;;;15.85;100.00;97176.04;219507;1277;24238;-78
2022/09/15 01:47:24;;;;;;;12.60;9.90;;;;;;;15.90;100.00;97166.10;215948;1277;5442422;-77
2022/09/15 01:53:23;;;;;;;13.00;10.30;;;;;;;15.93;100.00;97150.70;220338;1276;22724;-77
2022/09/15 01:59:25;;;;;;;14.70;10.90;;;;;;;15.95;100.00;97146.79;220078;1277;25386;-78
2022/09/15 02:05:15;;;;;;;13.00;9.40;;;;;;;15.96;100.00;97144.42;219984;1276;22932;-78
2022/09/15 02:11:39;;;;;;;14.10;10.50;;;;;;;15.98;100.00;97139.06;220742;1276;22696;-78
2022/09/15 02:17:28;;;;;;;12.90;9.40;;;;;;;15.97;100.00;97144.36;220296;1276;24431;-78
2022/09/15 02:23:17;;;;;;;18.00;13.00;;;;;;;15.96;100.00;97138.94;221185;1276;22589;-77
2022/09/15 02:29:27;;;;;;;17.50;10.90;;;;;;;15.95;100.00;97135.46;219889;1276;24296;-78
2022/09/15 02:34:44;;;;;;;;;;;;;;;15.94;100.00;97135.98;219781;1277;22564;-77
2022/09/15 02:41:16;;;;;;;11.30;8.40;;;;;;;15.92;100.00;97136.03;219939;1278;22540;-77
2022/09/15 02:46:58;;;;;;;13.50;10.30;;;;;;;15.89;100.00;97132.84;219596;1277;25331;-77
2022/09/15 03:06:15;;;;;;;11.80;8.80;;;;;;;15.77;100.00;97117.73;219930;1278;22549;-77
2022/09/15 03:11:55;;;;;;;;;;;;;;;;;;;;;
2022/09/15 03:18:14;;;;;;;13.50;10.60;;;;;;;15.78;100.00;97118.30;219153;1282;22686;-77
2022/09/15 03:24:27;;;;;;;17.40;13.30;;;;;;;15.78;100.00;97117.73;219196;1282;24554;-78
2022/09/15 03:30:53;;;;;;;17.10;13.60;;;;;;;15.78;100.00;97113.81;219155;1281;22719;-77
2022/09/15 03:37:47;;;;;;;;;;;;;;;;;;;;;
2022/09/15 03:57:08;;;;;;;11.90;8.20;;;;;;;16.01;100.00;97098.97;219902;1276;24372;-77
2022/09/15 04:10:32;;;;;;;9.60;7.70;;;;;;;16.11;100.00;97096.09;219615;1281;22555;-77
2022/09/15 04:17:09;;;;;;;9.20;7.00;;;;;;;16.12;100.00;97097.80;219307;1281;25262;-78
2022/09/15 04:23:07;;;;;;;10.20;8.50;;;;;;;16.12;100.00;97101.20;219186;1281;22564;-78
2022/09/15 04:28:46;;;;;;;9.40;7.80;;;;;;;16.15;100.00;97096.23;219559;1281;22553;-77
2022/09/15 04:34:33;;;;;;;8.50;7.00;;;;;;;16.18;100.00;97086.70;220080;1276;25254;-76
2022/09/15 04:53:45;;;;;;;9.70;6.80;;;;;;;16.34;100.00;97088.27;220378;1276;24502;-77
2022/09/15 04:59:02;;;;;;;9.50;7.80;;;;;;;16.39;100.00;97079.40;220012;1277;24452;-77
2022/09/15 05:04:54;;;;;;;7.50;6.10;;;;;;;16.48;100.00;97075.87;219963;1277;23316;-78
2022/09/15 05:10:48;;;;;;;8.50;6.60;;;;;;;16.54;100.00;97080.88;220180;1276;22703;-77
2022/09/15 05:16:43;;;;;;;9.10;6.70;;;;;;;16.60;100.00;97098.48;220345;1276;22546;-77
2022/09/15 05:22:21;;;;;;;9.70;6.00;;;;;;;16.68;100.00;97102.12;220155;1277;25378;-78
2022/09/15 05:27:54;;;;;;;8.40;6.30;;;;;;;16.76;100.00;97108.45;219991;1276;23079;-78
2022/09/15 05:33:24;;;;;;;7.60;6.80;;;;;;;16.80;100.00;97108.72;220165;1276;24349;-77
2022/09/15 05:39:11;;;;;;;12.20;6.00;;;;;;;16.76;100.00;97121.38;219840;1277;24249;-77
2022/09/15 05:45:14;;;;;;;;;;;;;;;;;;;;;
2022/09/15 05:51:06;;;;;;;13.10;9.00;;;;;;;16.46;100.00;97148.50;221226;1276;22596;-77
2022/09/15 05:57:04;;;;;;;9.30;7.80;;;;;;;16.28;100.00;97159.84;220732;1276;23704;-77
2022/09/15 06:02:42;;;;;;;;;;;;;;;;;;;;;
2022/09/15 06:14:55;;;;;;;2.40;2.00;;;;;;;15.81;100.00;97212.46;220898;1276;22766;-76
2022/09/15 06:21:14;;;;;;;;;;;;;;;;;;;;;
2022/09/15 06:27:29;;;;;;;1.80;1.60;;;;;;;15.47;100.00;97244.64;220564;1276;24386;-77
2022/09/15 06:32:45;;;;;;;1.80;1.70;;;;;;;15.37;100.00;97256.55;220360;1277;22839;-76
2022/09/15 06:38:01;;;;;;;3.10;1.80;;;;;;;15.34;100.00;97267.38;220357;1276;23968;-77
2022/09/15 06:43:22;;;;;;;2.00;1.70;;;;;;;15.37;100.00;97262.20;220061;1276;22790;-76
2022/09/15 06:49:04;;;;;;;2.50;1.90;;;;;;;15.46;100.00;97285.25;219982;1276;22716;-77
2022/09/15 06:54:40;;;;;;;;;;;;;;;;;;;;;
2022/09/15 07:00:13;;;;;;;3.10;2.30;;;;;;;15.56;100.00;97320.60;220186;1276;24280;-76
2022/09/15 07:06:24;;;;;;;4.10;2.40;;;;;;;15.63;100.00;97332.13;219978;1278;22567;-77
2022/09/15 07:12:02;;;;;;;3.90;2.60;;;;;;;15.73;100.00;97338.26;220162;1276;22570;-76
2022/09/15 07:17:52;;;;;;;3.90;2.30;;;;;;;15.84;100.00;97357.94;220119;1276;22681;-76
2022/09/15 07:23:22;;;;;;;2.30;2.10;;;;;;;16.02;100.00;97364.28;220209;1276;22685;-77
2022/09/15 07:29:07;;;;;;;2.80;2.00;;;;;;;16.21;100.00;97363.06;220284;1276;22594;-76
2022/09/15 07:34:42;;;;;;;2.20;2.00;;;;;;;16.43;100.00;97382.35;219987;1278;25434;-76
2022/09/15 07:40:34;;;;;;;16.70;3.20;;;;;;;16.66;100.00;97408.66;220153;1278;23854;-76
2022/09/15 07:46:20;;;;;;;2.80;2.30;;;;;;;16.76;100.00;97415.38;220288;1278;24315;-76
2022/09/15 07:52:04;;;;;;;6.10;2.10;;;;;;;16.91;100.00;97424.93;220339;1277;22554;-76
2022/09/15 07:58:14;;;;;;;1.40;1.30;;;;;;;17.09;100.00;97436.32;220374;1276;22580;-75
2022/09/15 08:03:25;;;;;;;3.80;1.40;;;;;;;17.19;100.00;97447.75;220197;1278;22565;-79
2022/09/15 08:08:44;;;;;;;1.40;1.00;;;;;;;17.13;100.00;97460.04;221267;1276;25416;-80
2022/09/15 08:13:51;;;;;;;12.50;2.30;;;;;;;16.99;100.00;97482.46;221161;1278;24434;-80
2022/09/15 08:19:11;;;;;;;2.60;1.10;;;;;;;16.90;100.00;97491.52;221406;1276;22541;-78
2022/09/15 08:24:36;;;;;;;3.10;1.80;;;;;;;16.87;100.00;97494.70;220046;1276;23187;-79
2022/09/15 08:30:08;;;;;;;33.20;3.70;;;;;;;16.79;100.00;97497.56;219851;1277;23822;-80
2022/09/15 08:36:00;;;;;;;7.50;2.10;;;;;;;16.75;100.00;97504.54;221492;1275;24916;-81
2022/09/15 08:41:58;;;;;;;4.40;1.30;;;;;;;16.85;100.00;97493.66;221072;1276;25273;-80
2022/09/15 08:48:01;;;;;;;3.10;1.00;;;;;;;17.04;100.00;97501.17;220721;1276;25422;-80
2022/09/15 08:53:14;;;;;;;1.40;1.20;;;;;;;17.18;100.00;97503.27;221290;1276;22537;-80
2022/09/15 08:58:53;;;;;;;;;;;;;;;;;;;;;
2022/09/15 09:05:29;;;;;;;;;;;;;;;;;;;;;
2022/09/15 09:11:00;;;;;;;11.40;2.40;;;;;;;18.07;100.00;97494.02;220868;1278;22556;-79
2022/09/15 09:16:53;;;;;;;5.50;2.70;;;;;;;18.38;100.00;97494.14;219789;1278;25431;-80
2022/09/15 09:22:02;;;;;;;9.80;2.80;;;;;;;18.50;100.00;97500.94;219885;1276;22586;-79
2022/09/15 09:27:20;;;;;;;7.40;3.20;;;;;;;18.46;100.00;97499.19;220005;1279;22722;-80
2022/09/15 09:33:13;;;;;;;3.00;2.70;;;;;;;18.24;100.00;97504.23;220131;1276;22562;-81
2022/09/15 09:38:42;;;;;;;9.60;6.20;;;;;;;17.87;100.00;97511.66;220335;1276;22662;-80
2022/09/15 09:44:30;;;;;;;7.60;5.50;;;;;;;17.69;100.00;97507.14;220979;1276;22800;-80
2022/09/15 09:49:49;;;;;;;6.90;6.20;;;;;;;17.61;99.97;97508.60;221145;1276;25256;-79
2022/09/15 09:55:40;;;;;;;7.30;6.50;;;;;;;17.72;100.00;97510.83;220109;1276;22750;-80
2022/09/15 10:01:14;;;;;;;11.70;7.00;;;;;;;17.82;99.87;97503.16;220051;1279;24011;-79
2022/09/15 10:06:45;;;;;;;27.70;8.10;;;;;;;17.94;100.00;97498.30;219740;1281;22543;-78
2022/09/15 10:12:42;;;;;;;13.60;7.10;;;;;;;18.01;99.84;97493.73;220010;1279;22466;-77
2022/09/15 10:17:55;;;;;;;24.10;9.30;;;;;;;18.01;99.39;97488.86;220014;1279;23830;-75
2022/09/15 10:23:50;;;;;;;21.00;8.60;;;;;;;17.95;99.01;97489.80;219699;1279;25434;-81
2022/09/15 10:29:59;;;;;;;10.30;6.10;;;;;;;17.82;99.31;97485.35;221150;1276;24312;-81
2022/09/15 10:36:09;;;;;;;6.10;5.40;;;;;;;17.53;98.77;97499.44;221013;1277;25566;-81
2022/09/15 10:42:00;;;;;;;9.30;6.70;;;;;;;17.10;98.84;97493.06;219662;1283;22917;-82
2022/09/15 10:48:45;;;;;;;;;;;;;;;;;;;;;
2022/09/15 10:55:11;;;;;;;19.10;8.10;;;;;;;16.79;99.16;97478.50;217554;1287;25408;-79
2022/09/15 11:01:40;;;;;;;21.90;10.40;;;;;;;16.71;99.53;97478.83;220339;1281;22554;-80
2022/09/15 11:07:55;;;;;;;22.80;9.40;;;;;;;16.68;99.56;97482.63;220466;1281;26373;-80
2022/09/15 11:13:30;;;;;;;17.20;12.10;;;;;;;16.62;99.81;97486.77;221277;1276;22564;-80
2022/09/15 11:19:27;;;;;;;19.70;12.00;;;;;;;16.47;99.73;97484.65;220502;1278;22572;-84
2022/09/15 11:25:35;;;;;;;;;;;;;;;;;;;;;
2022/09/15 11:31:21;;;;;;;19.50;11.10;;;;;;;16.38;99.99;97458.08;221362;1277;25488;-82
2022/09/15 11:37:08;;;;;;;14.60;9.20;;;;;;;16.57;99.99;97447.13;221140;1279;22727;-82
2022/09/15 11:43:38;;;;;;;18.60;10.40;;;;;;;16.74;99.96;97440.92;221055;1278;24430;-83
2022/09/15 12:03:45;;;;;;;;;;;;;;;;;;;;;
2022/09/15 12:09:32;;;;;;;14.90;8.80;;;;;;;17.53;98.94;97437.47;221387;1278;22594;-81
2022/09/15 12:15:34;;;;;;;15.30;10.40;;;;;;;17.76;98.54;97434.45;221159;1276;24244;-80
2022/09/15 12:22:01;;;;;;;17.30;10.10;;;;;;;17.84;98.13;97440.23;220364;1278;22540;-79
2022/09/15 12:27:29;;;;;;;13.60;9.80;;;;;;;17.70;97.12;97432.20;220109;1278;22540;-78
2022/09/15 12:34:04;;;;;;;12.60;8.40;;;;;;;17.55;97.37;97435.49;220254;1277;22679;-78
2022/09/15 12:39:50;;;;;;;16.30;8.70;;;;;;;17.40;97.23;97437.06;219964;1279;25347;-78
2022/09/15 12:45:18;;;;;;;14.70;9.50;;;;;;;17.25;97.00;97432.08;220056;1276;22566;-77
2022/09/15 12:50:53;;;;;;;12.40;8.20;;;;;;;17.12;97.11;97439.46;221388;1276;23257;-78
2022/09/15 12:56:52;;;;;;;16.80;9.80;;;;;;;17.01;96.99;97423.15;220075;1276;24426;-79
2022/09/15 13:02:03;;;;;;;12.20;9.40;;;;;;;17.05;97.21;97410.76;219808;1278;22547;-77
2022/09/15 13:07:32;;;;;;;12.10;9.20;;;;;;;17.11;97.00;97417.57;219991;1276;22557;-78
2022/09/15 13:13:21;;;;;;;14.10;9.40;;;;;;;17.05;96.89;97425.91;220006;1278;24883;-77
2022/09/15 13:18:41;;;;;;;14.30;10.00;;;;;;;16.90;96.89;97431.95;219926;1277;22572;-78
2022/09/15 13:24:18;;;;;;;11.80;9.10;;;;;;;16.82;97.03;97425.45;219901;1279;22602;-78
2022/09/15 13:30:03;;;;;;;12.00;7.50;;;;;;;16.80;97.23;97427.66;220018;1277;24815;-78
2022/09/15 13:36:01;;;;;;;9.50;6.00;;;;;;;16.67;97.27;97432.95;220015;1278;22618;-79
2022/09/15 13:41:31;;;;;;;9.10;5.00;;;;;;;16.60;97.29;97430.82;219934;1277;22562;-78
2022/09/15 13:47:00;;;;;;;9.80;6.20;;;;;;;16.53;97.51;97424.23;216007;1281;5083916;-78
2022/09/15 13:52:16;;;;;;;8.90;6.30;;;;;;;16.48;97.48;97416.55;219160;1281;25219;-78
2022/09/15 13:57:36;;;;;;;9.90;6.60;;;;;;;16.45;97.64;97406.02;219635;1281;24019;-78
2022/09/15 14:03:10;;;;;;;10.30;6.10;;;;;;;16.48;97.69;97405.21;219748;1281;24244;-79
2022/09/15 14:09:05;;;;;;;;;;;;;;;;;;;;;
2022/09/15 14:14:52;;;;;;;9.40;6.30;;;;;;;16.43;97.43;97397.88;219435;1281;23961;-78
2022/09/15 14:20:23;;;;;;;16.60;7.00;;;;;;;16.32;97.36;97390.11;219750;1276;24265;-79
2022/09/15 14:26:12;;;;;;;7.50;5.50;;;;;;;16.18;97.62;97365.48;220169;1277;25260;-81
2022/09/15 14:31:41;;;;;;;10.90;6.80;;;;;;;16.08;97.88;97360.13;221074;1277;22547;-79
2022/09/15 14:37:27;;;;;;;11.10;6.80;;;;;;;15.99;98.29;97359.82;219767;1279;23263;-80
2022/09/15 14:43:22;;;;;;;11.80;6.90;;;;;;;15.91;98.57;97347.41;220004;1278;24277;-78
2022/09/15 14:49:19;;;;;;;13.80;7.00;;;;;;;15.79;98.47;97336.16;220086;1277;24236;-80
2022/09/15 14:54:37;;;;;;;10.50;6.00;;;;;;;15.66;98.71;97358.66;219972;1278;22715;-80
2022/09/15 15:00:32;;;;;;;10.00;6.90;;;;;;;15.55;98.72;97375.64;219286;1284;22551;-81
2022/09/15 15:06:32;;;;;;;10.30;5.90;;;;;;;15.45;99.10;97374.11;218342;1285;24290;-78
2022/09/15 15:11:52;;;;;;;9.90;6.90;;;;;;;15.39;99.26;97376.69;218254;1284;22579;-79
2022/09/15 15:24:28;;;;;;;11.80;7.50;;;;;;;15.35;99.43;97388.26;218700;1282;22578;-79
2022/09/15 15:30:41;;;;;;;6.90;4.70;;;;;;;15.44;99.49;97387.36;219053;1282;24395;-79
2022/09/15 15:36:49;;;;;;;9.80;6.90;;;;;;;15.55;99.17;97402.48;219365;1282;24255;-76
2022/09/15 15:42:14;;;;;;;10.40;6.80;;;;;;;15.55;99.08;97415.82;219780;1277;23449;-78
2022/09/15 15:47:45;;;;;;;11.50;7.20;;;;;;;15.52;99.19;97418.77;220164;1277;22655;-79
2022/09/15 15:53:53;;;;;;;;;;;;;;;;;;;;;
2022/09/15 16:00:40;;;;;;;;;;;;;;;;;;;;;
2022/09/15 16:06:24;;;;;;;8.60;6.40;;;;;;;15.36;99.47;97428.29;219971;1277;25264;-78
2022/09/15 16:12:11;;;;;;;10.60;7.00;;;;;;;15.32;99.51;97435.14;220212;1277;22588;-79
2022/09/15 16:17:48;;;;;;;12.10;7.90;;;;;;;15.25;99.67;97444.77;219937;1277;22713;-78
2022/09/15 16:23:18;;;;;;;16.70;8.70;;;;;;;15.14;99.71;97443.77;219836;1277;24312;-79
2022/09/15 16:28:29;;;;;;;12.60;7.80;;;;;;;15.03;99.99;97454.06;219863;1277;25503;-79
2022/09/15 16:33:58;;;;;;;8.90;7.10;;;;;;;14.93;100.00;97452.91;219835;1277;26449;-79
2022/09/15 16:39:40;;;;;;;7.30;6.00;;;;;;;14.83;99.75;97455.91;219219;1281;24277;-79
2022/09/15 16:46:07;;;;;;;7.50;5.20;;;;;;;14.67;99.47;97459.38;218307;1284;24963;-78
2022/09/15 16:51:54;;;;;;;9.70;5.10;;;;;;;14.59;99.50;97460.05;218437;1285;22645;-78
2022/09/15 16:57:41;;;;;;;10.30;4.90;;;;;;;14.52;99.50;97457.05;218502;1285;24252;-79
2022/09/15 17:03:01;;;;;;;7.20;5.30;;;;;;;14.46;99.66;97461.44;218371;1285;23380;-78
2022/09/15 17:08:28;;;;;;;7.50;6.10;;;;;;;14.43;99.97;97459.44;218862;1281;24995;-79
2022/09/15 17:13:41;;;;;;;10.00;6.00;;;;;;;14.42;100.00;97460.09;219652;1278;24329;-78
2022/09/15 17:19:22;;;;;;;9.90;7.00;;;;;;;14.42;100.00;97471.23;220104;1276;22555;-79
2022/09/15 17:24:39;;;;;;;10.90;7.10;;;;;;;14.42;100.00;97467.03;220132;1277;22615;-79
2022/09/15 17:30:21;;;;;;;9.30;7.50;;;;;;;14.43;100.00;97464.74;219890;1277;22581;-79
2022/09/15 17:35:46;;;;;;;13.60;8.60;;;;;;;14.42;100.00;97466.79;219478;1281;22576;-79
2022/09/15 17:41:35;;;;;;;13.00;9.30;;;;;;;14.43;100.00;97466.59;219224;1281;22716;-79
2022/09/15 17:48:11;;;;;;;;;;;;;;;;;;;;;
2022/09/15 17:54:12;;;;;;;16.20;10.10;;;;;;;14.42;100.00;97453.39;219458;1281;23710;-79
2022/09/15 17:59:49;;;;;;;12.80;8.60;;;;;;;14.41;100.00;97461.22;218902;1284;22558;-78
2022/09/15 18:05:26;;;;;;;16.80;10.90;;;;;;;14.36;100.00;97472.73;218276;1285;25440;-79
2022/09/15 18:11:16;;;;;;;15.50;9.80;;;;;;;14.29;100.00;97479.78;218435;1284;22583;-78
2022/09/15 18:16:41;;;;;;;14.70;10.20;;;;;;;14.22;100.00;97483.04;218597;1284;22590;-78
2022/09/15 18:22:14;;;;;;;14.20;10.00;;;;;;;14.17;100.00;97462.38;219200;1284;25263;-79
2022/09/15 18:28:15;;;;;;;15.70;10.90;;;;;;;14.16;100.00;97467.73;218216;1285;23884;-78
2022/09/15 18:33:49;;;;;;;16.00;10.00;;;;;;;14.13;100.00;97466.90;218711;1284;22603;-79
2022/09/15 18:39:38;;;;;;;;;;;;;;;;;;;;;
2022/09/15 18:45:18;;;;;;;15.50;9.60;;;;;;;14.14;100.00;97480.30;219264;1282;24395;-78
2022/09/15 18:51:10;;;;;;;18.00;10.60;;;;;;;14.10;100.00;97488.20;218481;1284;24007;-78
2022/09/15 18:57:03;;;;;;;12.60;9.10;;;;;;;14.07;100.00;97480.18;219000;1281;22587;-78
2022/09/15 19:03:35;;;;;;;13.40;9.70;;;;;;;14.05;100.00;97489.29;219473;1281;24330;-80
2022/09/15 19:08:41;;;;;;;20.20;12.70;;;;;;;14.00;100.00;97494.62;219431;1281;22681;-78
2022/09/15 19:14:26;;;;;;;17.80;10.90;;;;;;;13.96;100.00;97500.11;218857;1284;24391;-78
2022/09/15 19:26:05;;;;;;;14.60;10.30;;;;;;;13.89;100.00;97502.91;219289;1281;22576;-78
2022/09/15 19:31:19;;;;;;;15.50;10.20;;;;;;;13.82;100.00;97508.27;219336;1281;25402;-78
2022/09/15 19:36:43;;;;;;;11.40;8.80;;;;;;;13.75;100.00;97511.98;219558;1279;22606;-78
2022/09/15 19:42:41;;;;;;;;;;;;;;;;;;;;;
2022/09/15 19:48:05;;;;;;;18.20;9.90;;;;;;;13.60;100.00;97512.53;219632;1279;23885;-79
2022/09/15 19:53:52;;;;;;;;;;;;;;;;;;;;;
2022/09/15 19:59:29;;;;;;;13.10;8.60;;;;;;;13.33;100.00;97520.02;219861;1277;23877;-78
2022/09/15 20:04:43;;;;;;;18.60;10.20;;;;;;;13.22;100.00;97522.41;219706;1279;23111;-78
2022/09/15 20:10:17;;;;;;;;;;;;;;;;;;;;;
2022/09/15 20:15:33;;;;;;;15.40;8.90;;;;;;;12.99;100.00;97517.93;219360;1281;25345;-78
2022/09/15 20:20:38;;;;;;;18.40;9.40;;;;;;;12.89;100.00;97518.98;219414;1281;22582;-79
2022/09/15 20:26:05;;;;;;;19.40;11.00;;;;;;;12.78;100.00;97516.85;219305;1281;24365;-79
2022/09/15 20:31:32;;;;;;;16.30;11.40;;;;;;;12.68;100.00;97523.28;219525;1281;25466;-78
2022/09/15 20:36:39;;;;;;;17.10;12.20;;;;;;;12.63;100.00;97522.89;219725;1280;23858;-77
2022/09/15 20:41:45;;;;;;;21.10;13.20;;;;;;;12.58;100.00;97523.42;219762;1277;24288;-79
2022/09/15 20:47:07;;;;;;;20.20;12.20;;;;;;;12.51;100.00;97522.95;220009;1275;24301;-79
2022/09/15 20:58:21;;;;;;;15.30;11.10;;;;;;;12.31;100.00;97535.84;219572;1279;24777;-79
2022/09/15 21:03:26;;;;;;;12.70;8.90;;;;;;;12.21;100.00;97531.11;219634;1279;24312;-78
2022/09/15 21:08:36;;;;;;;16.80;10.10;;;;;;;12.13;100.00;97543.66;219556;1279;22578;-78
2022/09/15 21:14:14;;;;;;;18.50;10.40;;;;;;;12.06;100.00;97556.27;219638;1277;27190;-79
2022/09/15 21:19:26;;;;;;;15.30;9.00;;;;;;;12.00;100.00;97559.20;220165;1276;22586;-80
2022/09/15 21:25:01;;;;;;;14.80;9.50;;;;;;;11.99;100.00;97561.08;219883;1276;25376;-78
2022/09/15 21:30:22;;;;;;;15.50;8.70;;;;;;;11.98;100.00;97562.50;219518;1277;24136;-79
2022/09/15 21:36:02;;;;;;;14.70;8.50;;;;;;;11.98;100.00;97575.01;220021;1276;24227;-79
2022/09/15 21:41:54;;;;;;;14.70;8.90;;;;;;;11.98;100.00;97579.35;220136;1276;24131;-79
2022/09/15 21:47:23;;;;;;;14.10;9.30;;;;;;;11.97;100.00;97584.86;220190;1276;22548;-78
2022/09/15 21:53:09;;;;;;;17.40;10.10;;;;;;;12.00;100.00;97590.99;219964;1278;25418;-79
2022/09/15 21:59:14;;;;;;;;;;;;;;;12.01;100.00;97602.86;220130;1276;25345;-78
2022/09/15 22:04:40;;;;;;;15.30;7.60;;;;;;;11.98;100.00;97598.09;219948;1277;22837;-80
2022/09/15 22:17:13;;;;;;;12.00;7.70;;;;;;;11.97;100.00;97610.99;219973;1277;22617;-79
2022/09/15 22:23:43;;;;;;;13.80;7.00;;;;;;;11.98;100.00;97609.42;219411;1279;26418;-78
2022/09/15 22:30:02;;;;;;;;;;;;;;;;;;;;;
2022/09/15 22:41:20;;;;;;;12.10;8.40;;;;;;;12.01;100.00;97623.41;219691;1281;22611;-78
2022/09/15 22:47:27;;;;;;;11.80;6.60;;;;;;;12.00;100.00;97633.50;219630;1281;25135;-79
2022/09/15 22:53:24;;;;;;;10.60;7.50;;;;;;;11.99;100.00;97633.23;220033;1276;24242;-79
2022/09/15 22:59:13;;;;;;;18.30;8.30;;;;;;;11.97;100.00;97637.39;220206;1276;24120;-78
2022/09/15 23:05:13;;;;;;;13.70;7.10;;;;;;;11.98;100.00;97637.96;219591;1281;25258;-79
2022/09/15 23:11:10;;;;;;;14.80;8.20;;;;;;;12.01;100.00;97649.89;219358;1281;23981;-79
2022/09/15 23:17:09;;;;;;;11.50;7.40;;;;;;;12.03;100.00;97644.73;219371;1281;24442;-78
2022/09/15 23:22:49;;;;;;;16.10;9.30;;;;;;;12.06;100.00;97637.63;218906;1281;22589;-79
2022/09/15 23:28:45;;;;;;;10.10;7.50;;;;;;;12.08;100.00;97645.30;219628;1276;25176;-79
2022/09/15 23:35:27;;;;;;;12.40;7.80;;;;;;;12.09;100.00;97654.32;219920;1277;25402;-79
2022/09/15 23:42:20;;;;;;;10.60;7.50;;;;;;;12.11;100.00;97656.92;219409;1281;22573;-79
2022/09/15 23:48:42;;;;;;;;;;;;;;;;;;;;;
2022/09/15 23:54:58;;;;;;;;;;;;;;;;;;;;;
